sensor_id;sensor_type;location;lat;lon;timestamp;P1;durP1;ratioP1;P2;durP2;ratioP2
8007;SDS011;4049;49.468;11.200;2022-08-19T00:02:00;17.17;;;12.37;;
8007;SDS011;4049;49.468;11.200;2022-08-19T00:04:29;17.37;;;12.57;;
8007;SDS011;4049;49.468;11.200;2022-08-19T00:07:01;16.07;;;11.27;;
8007;SDS011;4049;49.468;11.200;2022-08-19T00:09:29;17.37;;;12.17;;
8007;SDS011;4049;49.468;11.200;2022-08-19T00:11:58;18.20;;;12.27;;
8007;SDS011;4049;49.468;11.200;2022-08-19T00:14:27;15.87;;;11.40;;
8007;SDS011;4049;49.468;11.200;2022-08-19T00:16:56;17.90;;;12.40;;
8007;SDS011;4049;49.468;11.200;2022-08-19T00:19:23;17.17;;;12.07;;
8007;SDS011;4049;49.468;11.200;2022-08-19T00:21:50;19.27;;;13.13;;
8007;SDS011;4049;49.468;11.200;2022-08-19T00:24:18;17.87;;;13.20;;
8007;SDS011;4049;49.468;11.200;2022-08-19T00:26:45;17.50;;;12.70;;
8007;SDS011;4049;49.468;11.200;2022-08-19T00:29:15;18.30;;;12.43;;
8007;SDS011;4049;49.468;11.200;2022-08-19T00:31:44;20.77;;;13.10;;
8007;SDS011;4049;49.468;11.200;2022-08-19T00:34:11;16.30;;;11.97;;
8007;SDS011;4049;49.468;11.200;2022-08-19T00:36:39;20.80;;;12.70;;
8007;SDS011;4049;49.468;11.200;2022-08-19T00:39:07;16.63;;;11.57;;
8007;SDS011;4049;49.468;11.200;2022-08-19T00:41:34;15.67;;;10.83;;
8007;SDS011;4049;49.468;11.200;2022-08-19T00:44:03;14.67;;;11.67;;
8007;SDS011;4049;49.468;11.200;2022-08-19T00:46:34;16.23;;;12.30;;
8007;SDS011;4049;49.468;11.200;2022-08-19T00:49:05;18.23;;;12.97;;
8007;SDS011;4049;49.468;11.200;2022-08-19T00:51:35;20.57;;;12.87;;
8007;SDS011;4049;49.468;11.200;2022-08-19T00:54:03;22.40;;;13.40;;
8007;SDS011;4049;49.468;11.200;2022-08-19T00:56:30;19.30;;;12.23;;
8007;SDS011;4049;49.468;11.200;2022-08-19T00:58:58;18.13;;;13.57;;
8007;SDS011;4049;49.468;11.200;2022-08-19T01:01:26;17.60;;;12.87;;
8007;SDS011;4049;49.468;11.200;2022-08-19T01:03:55;17.17;;;12.47;;
8007;SDS011;4049;49.468;11.200;2022-08-19T01:06:22;18.47;;;12.27;;
8007;SDS011;4049;49.468;11.200;2022-08-19T01:08:49;18.53;;;12.33;;
8007;SDS011;4049;49.468;11.200;2022-08-19T01:11:16;19.87;;;12.73;;
8007;SDS011;4049;49.468;11.200;2022-08-19T01:13:43;20.63;;;13.07;;
8007;SDS011;4049;49.468;11.200;2022-08-19T01:16:11;20.47;;;12.30;;
8007;SDS011;4049;49.468;11.200;2022-08-19T01:18:40;18.43;;;12.20;;
8007;SDS011;4049;49.468;11.200;2022-08-19T01:21:11;18.17;;;13.10;;
8007;SDS011;4049;49.468;11.200;2022-08-19T01:23:45;18.97;;;12.40;;
8007;SDS011;4049;49.468;11.200;2022-08-19T01:26:13;18.57;;;12.70;;
8007;SDS011;4049;49.468;11.200;2022-08-19T01:28:42;16.77;;;12.37;;
8007;SDS011;4049;49.468;11.200;2022-08-19T01:31:14;18.73;;;12.67;;
8007;SDS011;4049;49.468;11.200;2022-08-19T01:33:43;17.03;;;12.00;;
8007;SDS011;4049;49.468;11.200;2022-08-19T01:36:12;19.57;;;12.73;;
8007;SDS011;4049;49.468;11.200;2022-08-19T01:38:41;16.40;;;12.13;;
8007;SDS011;4049;49.468;11.200;2022-08-19T01:41:11;17.17;;;11.80;;
8007;SDS011;4049;49.468;11.200;2022-08-19T01:43:38;16.07;;;12.40;;
8007;SDS011;4049;49.468;11.200;2022-08-19T01:46:06;18.70;;;11.77;;
8007;SDS011;4049;49.468;11.200;2022-08-19T01:48:33;17.27;;;12.10;;
8007;SDS011;4049;49.468;11.200;2022-08-19T01:51:01;17.70;;;11.60;;
8007;SDS011;4049;49.468;11.200;2022-08-19T01:53:28;18.57;;;13.00;;
8007;SDS011;4049;49.468;11.200;2022-08-19T01:55:55;16.70;;;12.27;;
8007;SDS011;4049;49.468;11.200;2022-08-19T01:58:24;15.23;;;11.50;;
8007;SDS011;4049;49.468;11.200;2022-08-19T02:01:01;18.40;;;12.17;;
8007;SDS011;4049;49.468;11.200;2022-08-19T02:03:28;16.60;;;11.97;;
8007;SDS011;4049;49.468;11.200;2022-08-19T02:05:55;16.23;;;11.07;;
8007;SDS011;4049;49.468;11.200;2022-08-19T02:08:24;16.17;;;11.37;;
8007;SDS011;4049;49.468;11.200;2022-08-19T02:10:51;16.83;;;10.90;;
8007;SDS011;4049;49.468;11.200;2022-08-19T02:13:19;14.33;;;10.63;;
8007;SDS011;4049;49.468;11.200;2022-08-19T02:15:47;17.67;;;11.83;;
8007;SDS011;4049;49.468;11.200;2022-08-19T02:18:14;18.30;;;12.10;;
8007;SDS011;4049;49.468;11.200;2022-08-19T02:20:42;21.43;;;12.00;;
8007;SDS011;4049;49.468;11.200;2022-08-19T02:23:12;17.70;;;11.47;;
8007;SDS011;4049;49.468;11.200;2022-08-19T02:25:40;15.80;;;11.60;;
8007;SDS011;4049;49.468;11.200;2022-08-19T02:28:07;18.13;;;12.10;;
8007;SDS011;4049;49.468;11.200;2022-08-19T02:30:34;15.67;;;12.03;;
8007;SDS011;4049;49.468;11.200;2022-08-19T02:33:03;14.67;;;11.20;;
8007;SDS011;4049;49.468;11.200;2022-08-19T02:35:30;18.03;;;11.57;;
8007;SDS011;4049;49.468;11.200;2022-08-19T02:37:57;17.50;;;12.03;;
8007;SDS011;4049;49.468;11.200;2022-08-19T02:40:47;17.27;;;11.90;;
8007;SDS011;4049;49.468;11.200;2022-08-19T02:43:16;17.17;;;12.07;;
8007;SDS011;4049;49.468;11.200;2022-08-19T02:45:45;16.63;;;11.97;;
8007;SDS011;4049;49.468;11.200;2022-08-19T02:48:14;17.73;;;12.60;;
8007;SDS011;4049;49.468;11.200;2022-08-19T02:50:42;16.17;;;11.33;;
8007;SDS011;4049;49.468;11.200;2022-08-19T02:53:10;18.80;;;12.60;;
8007;SDS011;4049;49.468;11.200;2022-08-19T02:55:42;17.13;;;11.90;;
8007;SDS011;4049;49.468;11.200;2022-08-19T02:58:10;18.07;;;12.30;;
8007;SDS011;4049;49.468;11.200;2022-08-19T03:00:41;17.43;;;11.80;;
8007;SDS011;4049;49.468;11.200;2022-08-19T03:03:09;19.30;;;12.00;;
8007;SDS011;4049;49.468;11.200;2022-08-19T03:05:38;19.70;;;13.13;;
8007;SDS011;4049;49.468;11.200;2022-08-19T03:08:05;22.80;;;11.93;;
8007;SDS011;4049;49.468;11.200;2022-08-19T03:10:33;23.00;;;12.00;;
8007;SDS011;4049;49.468;11.200;2022-08-19T03:13:09;18.40;;;12.40;;
8007;SDS011;4049;49.468;11.200;2022-08-19T03:15:38;16.43;;;11.53;;
8007;SDS011;4049;49.468;11.200;2022-08-19T03:18:06;21.93;;;13.10;;
8007;SDS011;4049;49.468;11.200;2022-08-19T03:20:33;17.00;;;11.43;;
8007;SDS011;4049;49.468;11.200;2022-08-19T03:23:02;17.00;;;11.53;;
8007;SDS011;4049;49.468;11.200;2022-08-19T03:25:28;16.70;;;11.20;;
8007;SDS011;4049;49.468;11.200;2022-08-19T03:27:55;16.57;;;11.17;;
8007;SDS011;4049;49.468;11.200;2022-08-19T03:30:22;17.20;;;12.23;;
8007;SDS011;4049;49.468;11.200;2022-08-19T03:32:49;15.50;;;10.57;;
8007;SDS011;4049;49.468;11.200;2022-08-19T03:35:16;15.50;;;11.30;;
8007;SDS011;4049;49.468;11.200;2022-08-19T03:37:45;16.40;;;11.10;;
8007;SDS011;4049;49.468;11.200;2022-08-19T03:40:13;18.07;;;11.97;;
8007;SDS011;4049;49.468;11.200;2022-08-19T03:42:40;14.67;;;10.37;;
8007;SDS011;4049;49.468;11.200;2022-08-19T03:45:07;15.53;;;10.73;;
8007;SDS011;4049;49.468;11.200;2022-08-19T03:47:35;16.20;;;11.07;;
8007;SDS011;4049;49.468;11.200;2022-08-19T03:50:03;16.37;;;11.57;;
8007;SDS011;4049;49.468;11.200;2022-08-19T03:52:30;16.80;;;10.40;;
8007;SDS011;4049;49.468;11.200;2022-08-19T03:54:57;15.37;;;10.40;;
8007;SDS011;4049;49.468;11.200;2022-08-19T03:57:26;15.23;;;11.00;;
8007;SDS011;4049;49.468;11.200;2022-08-19T03:59:53;14.67;;;11.03;;
8007;SDS011;4049;49.468;11.200;2022-08-19T04:02:20;17.70;;;11.10;;
8007;SDS011;4049;49.468;11.200;2022-08-19T04:04:47;17.10;;;11.57;;
8007;SDS011;4049;49.468;11.200;2022-08-19T04:07:14;16.87;;;11.40;;
8007;SDS011;4049;49.468;11.200;2022-08-19T04:09:43;18.40;;;11.40;;
8007;SDS011;4049;49.468;11.200;2022-08-19T04:12:10;17.70;;;12.07;;
8007;SDS011;4049;49.468;11.200;2022-08-19T04:14:38;17.77;;;11.17;;
8007;SDS011;4049;49.468;11.200;2022-08-19T04:17:05;15.83;;;10.63;;
8007;SDS011;4049;49.468;11.200;2022-08-19T04:19:32;16.97;;;11.27;;
8007;SDS011;4049;49.468;11.200;2022-08-19T04:22:00;15.63;;;10.73;;
8007;SDS011;4049;49.468;11.200;2022-08-19T04:24:28;18.00;;;10.77;;
8007;SDS011;4049;49.468;11.200;2022-08-19T04:26:55;15.80;;;10.83;;
8007;SDS011;4049;49.468;11.200;2022-08-19T04:29:23;18.13;;;11.93;;
8007;SDS011;4049;49.468;11.200;2022-08-19T04:31:53;18.07;;;11.30;;
8007;SDS011;4049;49.468;11.200;2022-08-19T04:34:22;17.23;;;11.67;;
8007;SDS011;4049;49.468;11.200;2022-08-19T04:36:50;16.30;;;11.10;;
8007;SDS011;4049;49.468;11.200;2022-08-19T04:39:19;17.40;;;10.97;;
8007;SDS011;4049;49.468;11.200;2022-08-19T04:42:14;15.37;;;10.77;;
8007;SDS011;4049;49.468;11.200;2022-08-19T04:44:59;13.60;;;10.23;;
8007;SDS011;4049;49.468;11.200;2022-08-19T04:47:29;15.07;;;11.00;;
8007;SDS011;4049;49.468;11.200;2022-08-19T04:49:57;17.53;;;11.10;;
8007;SDS011;4049;49.468;11.200;2022-08-19T04:52:24;17.67;;;10.90;;
8007;SDS011;4049;49.468;11.200;2022-08-19T04:54:51;17.47;;;11.20;;
8007;SDS011;4049;49.468;11.200;2022-08-19T04:57:20;16.60;;;11.13;;
8007;SDS011;4049;49.468;11.200;2022-08-19T04:59:47;15.80;;;11.47;;
8007;SDS011;4049;49.468;11.200;2022-08-19T05:02:15;16.00;;;11.10;;
8007;SDS011;4049;49.468;11.200;2022-08-19T05:04:43;15.93;;;11.37;;
8007;SDS011;4049;49.468;11.200;2022-08-19T05:07:10;17.30;;;11.53;;
8007;SDS011;4049;49.468;11.200;2022-08-19T05:09:37;17.90;;;11.17;;
8007;SDS011;4049;49.468;11.200;2022-08-19T05:12:04;15.87;;;10.57;;
8007;SDS011;4049;49.468;11.200;2022-08-19T05:14:32;16.20;;;10.70;;
8007;SDS011;4049;49.468;11.200;2022-08-19T05:17:00;16.77;;;10.83;;
8007;SDS011;4049;49.468;11.200;2022-08-19T05:19:27;15.47;;;11.50;;
8007;SDS011;4049;49.468;11.200;2022-08-19T05:22:13;18.33;;;12.17;;
8007;SDS011;4049;49.468;11.200;2022-08-19T05:24:59;15.97;;;10.23;;
8007;SDS011;4049;49.468;11.200;2022-08-19T05:27:30;15.73;;;11.43;;
8007;SDS011;4049;49.468;11.200;2022-08-19T05:29:57;18.83;;;11.97;;
8007;SDS011;4049;49.468;11.200;2022-08-19T05:32:24;17.27;;;11.70;;
8007;SDS011;4049;49.468;11.200;2022-08-19T05:34:51;18.63;;;11.73;;
8007;SDS011;4049;49.468;11.200;2022-08-19T05:37:19;18.07;;;12.37;;
8007;SDS011;4049;49.468;11.200;2022-08-19T05:39:47;17.93;;;12.40;;
8007;SDS011;4049;49.468;11.200;2022-08-19T05:42:14;18.93;;;12.20;;
8007;SDS011;4049;49.468;11.200;2022-08-19T05:44:42;17.07;;;12.33;;
8007;SDS011;4049;49.468;11.200;2022-08-19T05:47:10;18.13;;;12.07;;
8007;SDS011;4049;49.468;11.200;2022-08-19T05:49:40;16.27;;;11.90;;
8007;SDS011;4049;49.468;11.200;2022-08-19T05:52:08;17.53;;;11.77;;
8007;SDS011;4049;49.468;11.200;2022-08-19T05:54:39;19.23;;;12.40;;
8007;SDS011;4049;49.468;11.200;2022-08-19T05:57:07;18.57;;;11.93;;
8007;SDS011;4049;49.468;11.200;2022-08-19T05:59:35;20.47;;;11.87;;
8007;SDS011;4049;49.468;11.200;2022-08-19T06:02:03;16.87;;;11.27;;
8007;SDS011;4049;49.468;11.200;2022-08-19T06:04:31;17.23;;;11.10;;
8007;SDS011;4049;49.468;11.200;2022-08-19T06:06:58;19.20;;;12.37;;
8007;SDS011;4049;49.468;11.200;2022-08-19T06:09:26;17.30;;;12.00;;
8007;SDS011;4049;49.468;11.200;2022-08-19T06:11:55;17.63;;;11.50;;
8007;SDS011;4049;49.468;11.200;2022-08-19T06:14:26;12.67;;;9.70;;
8007;SDS011;4049;49.468;11.200;2022-08-19T06:16:56;17.03;;;11.23;;
8007;SDS011;4049;49.468;11.200;2022-08-19T06:19:26;15.87;;;10.97;;
8007;SDS011;4049;49.468;11.200;2022-08-19T06:21:55;15.07;;;10.00;;
8007;SDS011;4049;49.468;11.200;2022-08-19T06:24:24;13.77;;;9.47;;
8007;SDS011;4049;49.468;11.200;2022-08-19T06:26:55;14.57;;;9.40;;
8007;SDS011;4049;49.468;11.200;2022-08-19T06:29:24;12.80;;;10.00;;
8007;SDS011;4049;49.468;11.200;2022-08-19T06:31:53;14.47;;;9.60;;
8007;SDS011;4049;49.468;11.200;2022-08-19T06:34:22;13.90;;;9.30;;
8007;SDS011;4049;49.468;11.200;2022-08-19T06:36:51;13.27;;;9.60;;
8007;SDS011;4049;49.468;11.200;2022-08-19T06:39:19;11.47;;;8.83;;
8007;SDS011;4049;49.468;11.200;2022-08-19T06:41:49;12.87;;;8.73;;
8007;SDS011;4049;49.468;11.200;2022-08-19T06:44:19;11.50;;;7.83;;
8007;SDS011;4049;49.468;11.200;2022-08-19T06:46:47;10.73;;;7.70;;
8007;SDS011;4049;49.468;11.200;2022-08-19T06:49:15;13.90;;;8.77;;
8007;SDS011;4049;49.468;11.200;2022-08-19T06:51:43;11.27;;;8.17;;
8007;SDS011;4049;49.468;11.200;2022-08-19T06:54:13;11.67;;;8.13;;
8007;SDS011;4049;49.468;11.200;2022-08-19T06:56:41;12.53;;;7.97;;
8007;SDS011;4049;49.468;11.200;2022-08-19T06:59:11;9.73;;;7.43;;
8007;SDS011;4049;49.468;11.200;2022-08-19T07:01:42;12.17;;;8.13;;
8007;SDS011;4049;49.468;11.200;2022-08-19T07:04:12;9.80;;;7.57;;
8007;SDS011;4049;49.468;11.200;2022-08-19T07:06:41;11.20;;;8.23;;
8007;SDS011;4049;49.468;11.200;2022-08-19T07:09:08;11.17;;;7.40;;
8007;SDS011;4049;49.468;11.200;2022-08-19T07:11:36;11.10;;;7.67;;
8007;SDS011;4049;49.468;11.200;2022-08-19T07:14:03;11.60;;;8.17;;
8007;SDS011;4049;49.468;11.200;2022-08-19T07:16:31;12.47;;;7.97;;
8007;SDS011;4049;49.468;11.200;2022-08-19T07:19:00;12.57;;;8.40;;
8007;SDS011;4049;49.468;11.200;2022-08-19T07:21:27;11.20;;;8.20;;
8007;SDS011;4049;49.468;11.200;2022-08-19T07:23:55;11.00;;;8.37;;
8007;SDS011;4049;49.468;11.200;2022-08-19T07:26:25;13.07;;;8.33;;
8007;SDS011;4049;49.468;11.200;2022-08-19T07:28:54;13.70;;;8.70;;
8007;SDS011;4049;49.468;11.200;2022-08-19T07:31:24;11.87;;;8.27;;
8007;SDS011;4049;49.468;11.200;2022-08-19T07:33:54;12.37;;;8.30;;
8007;SDS011;4049;49.468;11.200;2022-08-19T07:36:23;12.30;;;7.80;;
8007;SDS011;4049;49.468;11.200;2022-08-19T07:38:54;10.50;;;7.37;;
8007;SDS011;4049;49.468;11.200;2022-08-19T07:41:21;11.53;;;7.60;;
8007;SDS011;4049;49.468;11.200;2022-08-19T07:43:50;12.97;;;8.70;;
8007;SDS011;4049;49.468;11.200;2022-08-19T07:46:18;10.87;;;7.97;;
8007;SDS011;4049;49.468;11.200;2022-08-19T07:48:47;13.83;;;7.77;;
8007;SDS011;4049;49.468;11.200;2022-08-19T07:51:16;12.00;;;8.47;;
8007;SDS011;4049;49.468;11.200;2022-08-19T07:53:46;11.03;;;7.53;;
8007;SDS011;4049;49.468;11.200;2022-08-19T07:56:16;9.13;;;7.03;;
8007;SDS011;4049;49.468;11.200;2022-08-19T07:58:45;12.10;;;8.37;;
8007;SDS011;4049;49.468;11.200;2022-08-19T08:01:14;11.20;;;7.90;;
8007;SDS011;4049;49.468;11.200;2022-08-19T08:03:43;13.53;;;8.10;;
8007;SDS011;4049;49.468;11.200;2022-08-19T08:06:24;10.20;;;7.33;;
8007;SDS011;4049;49.468;11.200;2022-08-19T08:09:11;10.03;;;7.13;;
8007;SDS011;4049;49.468;11.200;2022-08-19T08:11:47;11.37;;;7.57;;
8007;SDS011;4049;49.468;11.200;2022-08-19T08:14:16;10.00;;;7.17;;
8007;SDS011;4049;49.468;11.200;2022-08-19T08:16:47;11.77;;;7.63;;
8007;SDS011;4049;49.468;11.200;2022-08-19T08:19:16;10.60;;;7.67;;
8007;SDS011;4049;49.468;11.200;2022-08-19T08:21:45;10.98;;;7.38;;
8007;SDS011;4049;49.468;11.200;2022-08-19T08:24:14;10.70;;;7.97;;
8007;SDS011;4049;49.468;11.200;2022-08-19T08:26:41;12.97;;;7.53;;
8007;SDS011;4049;49.468;11.200;2022-08-19T08:29:09;11.77;;;8.20;;
8007;SDS011;4049;49.468;11.200;2022-08-19T08:31:38;13.57;;;8.57;;
8007;SDS011;4049;49.468;11.200;2022-08-19T08:34:06;10.77;;;7.20;;
8007;SDS011;4049;49.468;11.200;2022-08-19T08:36:35;12.07;;;8.70;;
8007;SDS011;4049;49.468;11.200;2022-08-19T08:39:05;12.47;;;8.43;;
8007;SDS011;4049;49.468;11.200;2022-08-19T08:41:35;13.47;;;8.33;;
8007;SDS011;4049;49.468;11.200;2022-08-19T08:44:06;14.13;;;8.20;;
8007;SDS011;4049;49.468;11.200;2022-08-19T08:46:41;12.20;;;7.60;;
8007;SDS011;4049;49.468;11.200;2022-08-19T08:49:16;13.47;;;9.17;;
8007;SDS011;4049;49.468;11.200;2022-08-19T08:51:59;12.13;;;8.17;;
8007;SDS011;4049;49.468;11.200;2022-08-19T08:54:30;14.30;;;8.80;;
8007;SDS011;4049;49.468;11.200;2022-08-19T08:57:04;13.47;;;9.80;;
8007;SDS011;4049;49.468;11.200;2022-08-19T08:59:36;18.77;;;11.50;;
8007;SDS011;4049;49.468;11.200;2022-08-19T09:02:06;13.03;;;9.23;;
8007;SDS011;4049;49.468;11.200;2022-08-19T09:04:34;12.40;;;8.30;;
8007;SDS011;4049;49.468;11.200;2022-08-19T09:07:07;16.07;;;9.30;;
8007;SDS011;4049;49.468;11.200;2022-08-19T09:09:46;14.73;;;9.83;;
8007;SDS011;4049;49.468;11.200;2022-08-19T09:12:18;14.30;;;9.20;;
8007;SDS011;4049;49.468;11.200;2022-08-19T09:14:55;15.32;;;9.60;;
8007;SDS011;4049;49.468;11.200;2022-08-19T09:17:27;13.77;;;9.00;;
8007;SDS011;4049;49.468;11.200;2022-08-19T09:19:58;12.43;;;8.50;;
8007;SDS011;4049;49.468;11.200;2022-08-19T09:22:29;13.50;;;8.53;;
8007;SDS011;4049;49.468;11.200;2022-08-19T09:24:57;14.57;;;8.90;;
8007;SDS011;4049;49.468;11.200;2022-08-19T09:27:26;15.10;;;9.77;;
8007;SDS011;4049;49.468;11.200;2022-08-19T09:29:53;16.58;;;9.68;;
8007;SDS011;4049;49.468;11.200;2022-08-19T09:32:21;15.70;;;8.73;;
8007;SDS011;4049;49.468;11.200;2022-08-19T09:34:52;12.65;;;9.05;;
8007;SDS011;4049;49.468;11.200;2022-08-19T09:37:19;12.33;;;8.60;;
8007;SDS011;4049;49.468;11.200;2022-08-19T09:39:47;12.70;;;7.83;;
8007;SDS011;4049;49.468;11.200;2022-08-19T09:42:14;13.00;;;8.52;;
8007;SDS011;4049;49.468;11.200;2022-08-19T09:44:43;14.30;;;9.13;;
8007;SDS011;4049;49.468;11.200;2022-08-19T09:47:10;12.40;;;8.60;;
8007;SDS011;4049;49.468;11.200;2022-08-19T09:49:39;12.98;;;8.38;;
8007;SDS011;4049;49.468;11.200;2022-08-19T09:52:08;12.37;;;9.10;;
8007;SDS011;4049;49.468;11.200;2022-08-19T09:54:36;13.60;;;8.70;;
8007;SDS011;4049;49.468;11.200;2022-08-19T09:57:03;13.87;;;9.73;;
8007;SDS011;4049;49.468;11.200;2022-08-19T09:59:30;15.63;;;9.93;;
8007;SDS011;4049;49.468;11.200;2022-08-19T10:01:59;16.67;;;10.50;;
8007;SDS011;4049;49.468;11.200;2022-08-19T10:04:26;14.10;;;10.07;;
8007;SDS011;4049;49.468;11.200;2022-08-19T10:07:13;14.77;;;10.50;;
8007;SDS011;4049;49.468;11.200;2022-08-19T10:09:40;15.50;;;10.30;;
8007;SDS011;4049;49.468;11.200;2022-08-19T10:12:07;15.57;;;10.10;;
8007;SDS011;4049;49.468;11.200;2022-08-19T10:14:34;17.00;;;10.27;;
8007;SDS011;4049;49.468;11.200;2022-08-19T10:17:03;15.97;;;10.87;;
8007;SDS011;4049;49.468;11.200;2022-08-19T10:19:30;15.73;;;10.23;;
8007;SDS011;4049;49.468;11.200;2022-08-19T10:22:02;16.60;;;10.70;;
8007;SDS011;4049;49.468;11.200;2022-08-19T10:24:30;14.73;;;10.60;;
8007;SDS011;4049;49.468;11.200;2022-08-19T10:26:59;17.37;;;12.03;;
8007;SDS011;4049;49.468;11.200;2022-08-19T10:29:28;17.50;;;12.43;;
8007;SDS011;4049;49.468;11.200;2022-08-19T10:31:56;19.33;;;11.77;;
8007;SDS011;4049;49.468;11.200;2022-08-19T10:34:26;20.53;;;12.87;;
8007;SDS011;4049;49.468;11.200;2022-08-19T10:36:54;19.03;;;11.70;;
8007;SDS011;4049;49.468;11.200;2022-08-19T10:39:22;19.67;;;12.40;;
8007;SDS011;4049;49.468;11.200;2022-08-19T10:41:49;20.10;;;12.50;;
8007;SDS011;4049;49.468;11.200;2022-08-19T10:44:15;17.40;;;11.43;;
8007;SDS011;4049;49.468;11.200;2022-08-19T10:46:43;21.57;;;12.90;;
8007;SDS011;4049;49.468;11.200;2022-08-19T10:49:12;21.70;;;12.20;;
8007;SDS011;4049;49.468;11.200;2022-08-19T10:51:41;21.10;;;12.60;;
8007;SDS011;4049;49.468;11.200;2022-08-19T10:54:26;19.67;;;11.43;;
8007;SDS011;4049;49.468;11.200;2022-08-19T10:57:07;16.97;;;11.83;;
8007;SDS011;4049;49.468;11.200;2022-08-19T10:59:34;18.53;;;11.83;;
8007;SDS011;4049;49.468;11.200;2022-08-19T11:02:03;21.57;;;12.43;;
8007;SDS011;4049;49.468;11.200;2022-08-19T11:04:32;20.77;;;12.37;;
8007;SDS011;4049;49.468;11.200;2022-08-19T11:07:00;21.57;;;12.30;;
8007;SDS011;4049;49.468;11.200;2022-08-19T11:09:28;18.90;;;11.17;;
8007;SDS011;4049;49.468;11.200;2022-08-19T11:11:55;19.60;;;12.83;;
8007;SDS011;4049;49.468;11.200;2022-08-19T11:14:22;19.27;;;11.30;;
8007;SDS011;4049;49.468;11.200;2022-08-19T11:16:50;18.77;;;12.10;;
8007;SDS011;4049;49.468;11.200;2022-08-19T11:19:21;18.07;;;12.17;;
8007;SDS011;4049;49.468;11.200;2022-08-19T11:21:49;16.40;;;11.53;;
8007;SDS011;4049;49.468;11.200;2022-08-19T11:24:22;18.87;;;11.73;;
8007;SDS011;4049;49.468;11.200;2022-08-19T11:26:50;18.53;;;12.13;;
8007;SDS011;4049;49.468;11.200;2022-08-19T11:29:19;16.97;;;11.57;;
8007;SDS011;4049;49.468;11.200;2022-08-19T11:31:50;20.50;;;12.10;;
8007;SDS011;4049;49.468;11.200;2022-08-19T11:34:19;16.23;;;10.97;;
8007;SDS011;4049;49.468;11.200;2022-08-19T11:36:49;18.70;;;12.27;;
8007;SDS011;4049;49.468;11.200;2022-08-19T11:39:18;20.80;;;13.10;;
8007;SDS011;4049;49.468;11.200;2022-08-19T11:41:47;20.27;;;13.03;;
8007;SDS011;4049;49.468;11.200;2022-08-19T11:44:14;19.30;;;12.80;;
8007;SDS011;4049;49.468;11.200;2022-08-19T11:46:42;17.67;;;11.73;;
8007;SDS011;4049;49.468;11.200;2022-08-19T11:49:11;17.93;;;11.90;;
8007;SDS011;4049;49.468;11.200;2022-08-19T11:51:39;18.70;;;12.03;;
8007;SDS011;4049;49.468;11.200;2022-08-19T11:54:08;17.77;;;12.40;;
8007;SDS011;4049;49.468;11.200;2022-08-19T11:56:39;20.47;;;12.03;;
8007;SDS011;4049;49.468;11.200;2022-08-19T11:59:07;18.67;;;12.27;;
8007;SDS011;4049;49.468;11.200;2022-08-19T12:01:35;19.20;;;12.73;;
8007;SDS011;4049;49.468;11.200;2022-08-19T12:04:02;20.63;;;13.10;;
8007;SDS011;4049;49.468;11.200;2022-08-19T12:06:30;19.17;;;12.70;;
8007;SDS011;4049;49.468;11.200;2022-08-19T12:08:59;20.90;;;13.30;;
8007;SDS011;4049;49.468;11.200;2022-08-19T12:11:29;18.13;;;12.40;;
8007;SDS011;4049;49.468;11.200;2022-08-19T12:13:58;18.07;;;11.90;;
8007;SDS011;4049;49.468;11.200;2022-08-19T12:16:26;19.83;;;13.23;;
8007;SDS011;4049;49.468;11.200;2022-08-19T12:18:55;18.17;;;12.20;;
8007;SDS011;4049;49.468;11.200;2022-08-19T12:21:28;17.93;;;11.80;;
8007;SDS011;4049;49.468;11.200;2022-08-19T12:23:56;20.60;;;12.63;;
8007;SDS011;4049;49.468;11.200;2022-08-19T12:26:26;18.83;;;12.47;;
8007;SDS011;4049;49.468;11.200;2022-08-19T12:28:54;20.17;;;12.87;;
8007;SDS011;4049;49.468;11.200;2022-08-19T12:31:22;20.77;;;12.97;;
8007;SDS011;4049;49.468;11.200;2022-08-19T12:33:49;17.30;;;11.83;;
8007;SDS011;4049;49.468;11.200;2022-08-19T12:36:17;19.97;;;12.07;;
8007;SDS011;4049;49.468;11.200;2022-08-19T12:38:44;17.07;;;12.53;;
8007;SDS011;4049;49.468;11.200;2022-08-19T12:41:13;15.80;;;11.60;;
8007;SDS011;4049;49.468;11.200;2022-08-19T12:43:43;17.50;;;11.17;;
8007;SDS011;4049;49.468;11.200;2022-08-19T12:46:12;16.40;;;11.57;;
8007;SDS011;4049;49.468;11.200;2022-08-19T12:48:41;19.60;;;12.60;;
8007;SDS011;4049;49.468;11.200;2022-08-19T12:51:10;19.70;;;12.20;;
8007;SDS011;4049;49.468;11.200;2022-08-19T12:53:38;16.47;;;11.63;;
8007;SDS011;4049;49.468;11.200;2022-08-19T12:56:06;15.70;;;11.23;;
8007;SDS011;4049;49.468;11.200;2022-08-19T12:58:34;16.57;;;11.70;;
8007;SDS011;4049;49.468;11.200;2022-08-19T13:01:05;19.13;;;12.40;;
8007;SDS011;4049;49.468;11.200;2022-08-19T13:03:33;19.23;;;11.40;;
8007;SDS011;4049;49.468;11.200;2022-08-19T13:06:01;19.10;;;12.70;;
8007;SDS011;4049;49.468;11.200;2022-08-19T13:08:28;17.13;;;12.53;;
8007;SDS011;4049;49.468;11.200;2022-08-19T13:10:55;17.83;;;12.13;;
8007;SDS011;4049;49.468;11.200;2022-08-19T13:13:23;18.47;;;12.03;;
8007;SDS011;4049;49.468;11.200;2022-08-19T13:15:51;18.57;;;12.33;;
8007;SDS011;4049;49.468;11.200;2022-08-19T13:18:18;17.80;;;12.40;;
8007;SDS011;4049;49.468;11.200;2022-08-19T13:20:45;20.50;;;12.80;;
8007;SDS011;4049;49.468;11.200;2022-08-19T13:23:13;16.43;;;11.50;;
8007;SDS011;4049;49.468;11.200;2022-08-19T13:25:40;19.50;;;13.40;;
8007;SDS011;4049;49.468;11.200;2022-08-19T13:28:07;22.30;;;13.80;;
8007;SDS011;4049;49.468;11.200;2022-08-19T13:30:34;20.10;;;13.27;;
8007;SDS011;4049;49.468;11.200;2022-08-19T13:33:18;18.83;;;12.70;;
8007;SDS011;4049;49.468;11.200;2022-08-19T13:35:46;20.10;;;13.67;;
8007;SDS011;4049;49.468;11.200;2022-08-19T13:38:17;16.47;;;11.40;;
8007;SDS011;4049;49.468;11.200;2022-08-19T13:40:45;21.10;;;13.77;;
8007;SDS011;4049;49.468;11.200;2022-08-19T13:43:14;20.00;;;13.33;;
8007;SDS011;4049;49.468;11.200;2022-08-19T13:45:42;21.57;;;13.47;;
8007;SDS011;4049;49.468;11.200;2022-08-19T13:48:09;18.47;;;13.30;;
8007;SDS011;4049;49.468;11.200;2022-08-19T13:50:38;22.17;;;13.73;;
8007;SDS011;4049;49.468;11.200;2022-08-19T13:53:08;20.73;;;13.63;;
8007;SDS011;4049;49.468;11.200;2022-08-19T13:55:38;22.87;;;13.10;;
8007;SDS011;4049;49.468;11.200;2022-08-19T13:58:06;18.67;;;12.33;;
8007;SDS011;4049;49.468;11.200;2022-08-19T14:00:34;19.33;;;12.73;;
8007;SDS011;4049;49.468;11.200;2022-08-19T14:03:02;18.90;;;12.27;;
8007;SDS011;4049;49.468;11.200;2022-08-19T14:05:30;18.80;;;12.67;;
8007;SDS011;4049;49.468;11.200;2022-08-19T14:07:58;18.63;;;12.97;;
8007;SDS011;4049;49.468;11.200;2022-08-19T14:10:25;21.33;;;12.40;;
8007;SDS011;4049;49.468;11.200;2022-08-19T14:12:55;16.57;;;11.27;;
8007;SDS011;4049;49.468;11.200;2022-08-19T14:15:23;18.03;;;12.30;;
8007;SDS011;4049;49.468;11.200;2022-08-19T14:17:51;17.30;;;11.40;;
8007;SDS011;4049;49.468;11.200;2022-08-19T14:20:18;15.17;;;10.27;;
8007;SDS011;4049;49.468;11.200;2022-08-19T14:22:46;15.07;;;9.70;;
8007;SDS011;4049;49.468;11.200;2022-08-19T14:25:15;14.80;;;10.00;;
8007;SDS011;4049;49.468;11.200;2022-08-19T14:27:43;15.33;;;10.03;;
8007;SDS011;4049;49.468;11.200;2022-08-19T14:30:14;13.53;;;8.13;;
8007;SDS011;4049;49.468;11.200;2022-08-19T14:32:42;11.70;;;8.40;;
8007;SDS011;4049;49.468;11.200;2022-08-19T14:35:09;10.37;;;7.50;;
8007;SDS011;4049;49.468;11.200;2022-08-19T14:37:39;10.37;;;6.57;;
8007;SDS011;4049;49.468;11.200;2022-08-19T14:40:07;8.17;;;5.63;;
8007;SDS011;4049;49.468;11.200;2022-08-19T14:42:34;8.57;;;5.90;;
8007;SDS011;4049;49.468;11.200;2022-08-19T14:45:02;8.60;;;6.40;;
8007;SDS011;4049;49.468;11.200;2022-08-19T14:47:32;9.40;;;6.70;;
8007;SDS011;4049;49.468;11.200;2022-08-19T14:49:59;8.00;;;5.67;;